sensor_id;sensor_type;location;lat;lon;timestamp;pressure;altitude;pressure_sealevel;temperature;humidity
46412;BME280;32113;42.012;24.870;2023-05-08T00:02:05;99262.28;;;16.83;47.23
46412;BME280;32113;42.012;24.870;2023-05-08T00:04:31;99257.63;;;16.93;46.80
46412;BME280;32113;42.012;24.870;2023-05-08T00:06:56;99247.81;;;17.03;46.45
46412;BME280;32113;42.012;24.870;2023-05-08T00:09:21;99244.19;;;17.09;46.18
46412;BME280;32113;42.012;24.870;2023-05-08T00:11:46;99238.06;;;17.11;45.68
46412;BME280;32113;42.012;24.870;2023-05-08T00:14:12;99243.13;;;17.14;45.57
46412;BME280;32113;42.012;24.870;2023-05-08T00:16:37;99240.34;;;17.20;45.19
46412;BME280;32113;42.012;24.870;2023-05-08T00:19:02;99239.34;;;17.25;44.71
46412;BME280;32113;42.012;24.870;2023-05-08T00:21:28;99242.59;;;17.30;44.78
46412;BME280;32113;42.012;24.870;2023-05-08T00:23:53;99247.94;;;17.25;44.58
46412;BME280;32113;42.012;24.870;2023-05-08T00:26:18;99242.13;;;17.18;44.85
46412;BME280;32113;42.012;24.870;2023-05-08T00:28:44;99243.88;;;17.18;44.81
46412;BME280;32113;42.012;24.870;2023-05-08T00:31:10;99248.16;;;17.19;44.81
46412;BME280;32113;42.012;24.870;2023-05-08T00:33:35;99242.94;;;17.20;44.40
46412;BME280;32113;42.012;24.870;2023-05-08T00:36:01;99254.34;;;17.15;44.35
46412;BME280;32113;42.012;24.870;2023-05-08T00:38:29;99252.72;;;17.12;44.56
46412;BME280;32113;42.012;24.870;2023-05-08T00:40:54;99250.97;;;17.13;43.99
46412;BME280;32113;42.012;24.870;2023-05-08T00:43:19;99249.53;;;17.04;44.36
46412;BME280;32113;42.012;24.870;2023-05-08T00:45:49;99256.44;;;17.03;44.04
46412;BME280;32113;42.012;24.870;2023-05-08T00:48:15;99266.91;;;17.00;44.06
46412;BME280;32113;42.012;24.870;2023-05-08T00:50:41;99261.66;;;17.02;43.66
46412;BME280;32113;42.012;24.870;2023-05-08T00:53:06;99263.63;;;16.95;44.21
46412;BME280;32113;42.012;24.870;2023-05-08T00:55:31;99270.78;;;16.87;44.29
46412;BME280;32113;42.012;24.870;2023-05-08T00:57:57;99269.94;;;16.86;44.69
46412;BME280;32113;42.012;24.870;2023-05-08T01:00:22;99269.94;;;16.86;44.92
46412;BME280;32113;42.012;24.870;2023-05-08T01:02:48;99267.41;;;16.85;44.48
46412;BME280;32113;42.012;24.870;2023-05-08T01:05:14;99269.94;;;16.86;44.77
46412;BME280;32113;42.012;24.870;2023-05-08T01:07:39;99270.69;;;16.90;44.76
46412;BME280;32113;42.012;24.870;2023-05-08T01:10:05;99269.09;;;16.86;45.06
46412;BME280;32113;42.012;24.870;2023-05-08T01:15:15;99276.19;;;16.80;45.02
46412;BME280;32113;42.012;24.870;2023-05-08T01:28:07;99287.38;;;16.54;46.50
46412;BME280;32113;42.012;24.870;2023-05-08T01:33:19;99284.78;;;16.54;47.56
46412;BME280;32113;42.012;24.870;2023-05-08T01:35:49;99283.94;;;16.53;47.78
46412;BME280;32113;42.012;24.870;2023-05-08T01:38:18;99286.59;;;16.50;48.19
46412;BME280;32113;42.012;24.870;2023-05-08T01:40:59;99280.03;;;16.40;48.80
46412;BME280;32113;42.012;24.870;2023-05-08T01:43:34;99278.47;;;16.34;49.28
46412;BME280;32113;42.012;24.870;2023-05-08T01:46:04;99281.13;;;16.33;49.20
46412;BME280;32113;42.012;24.870;2023-05-08T01:48:34;99281.34;;;16.25;49.50
46412;BME280;32113;42.012;24.870;2023-05-08T01:51:11;99282.50;;;16.14;49.75
46412;BME280;32113;42.012;24.870;2023-05-08T01:53:40;99288.47;;;16.18;49.63
46412;BME280;32113;42.012;24.870;2023-05-08T01:56:13;99279.78;;;16.19;49.69
46412;BME280;32113;42.012;24.870;2023-05-08T01:58:41;99278.97;;;16.17;49.87
46412;BME280;32113;42.012;24.870;2023-05-08T02:01:07;99278.47;;;16.06;50.20
46412;BME280;32113;42.012;24.870;2023-05-08T02:03:33;99278.03;;;15.89;50.77
46412;BME280;32113;42.012;24.870;2023-05-08T02:05:59;99278.09;;;15.86;50.96
46412;BME280;32113;42.012;24.870;2023-05-08T02:08:25;99278.22;;;15.83;51.38
46412;BME280;32113;42.012;24.870;2023-05-08T02:10:51;99275.91;;;15.72;51.86
46412;BME280;32113;42.012;24.870;2023-05-08T02:13:18;99278.84;;;15.60;52.31
46412;BME280;32113;42.012;24.870;2023-05-08T02:15:44;99277.00;;;15.63;52.58
46412;BME280;32113;42.012;24.870;2023-05-08T02:18:11;99283.97;;;15.61;52.44
46412;BME280;32113;42.012;24.870;2023-05-08T02:20:38;99277.00;;;15.63;52.84
46412;BME280;32113;42.012;24.870;2023-05-08T02:23:04;99281.09;;;15.72;53.03
46412;BME280;32113;42.012;24.870;2023-05-08T02:25:30;99277.69;;;15.70;52.62
46412;BME280;32113;42.012;24.870;2023-05-08T02:27:55;99274.94;;;15.76;52.67
46412;BME280;32113;42.012;24.870;2023-05-08T02:30:22;99279.97;;;15.81;52.46
46412;BME280;32113;42.012;24.870;2023-05-08T02:32:49;99272.19;;;15.83;52.70
46412;BME280;32113;42.012;24.870;2023-05-08T02:35:16;99272.09;;;15.86;52.56
46412;BME280;32113;42.012;24.870;2023-05-08T02:37:43;99274.72;;;15.84;52.84
46412;BME280;32113;42.012;24.870;2023-05-08T02:40:09;99272.81;;;15.91;53.25
46412;BME280;32113;42.012;24.870;2023-05-08T02:42:35;99274.44;;;15.95;53.03
46412;BME280;32113;42.012;24.870;2023-05-08T02:45:00;99272.69;;;15.96;53.22
46412;BME280;32113;42.012;24.870;2023-05-08T02:47:26;99273.59;;;15.93;53.11
46412;BME280;32113;42.012;24.870;2023-05-08T02:49:54;99274.50;;;15.94;53.37
46412;BME280;32113;42.012;24.870;2023-05-08T02:52:24;99274.50;;;15.92;53.54
46412;BME280;32113;42.012;24.870;2023-05-08T02:55:08;99276.34;;;15.88;53.52
46412;BME280;32113;42.012;24.870;2023-05-08T02:57:46;99278.97;;;15.87;53.89
46412;BME280;32113;42.012;24.870;2023-05-08T03:00:21;99282.75;;;15.75;54.31
46412;BME280;32113;42.012;24.870;2023-05-08T03:02:51;99286.31;;;15.71;54.66
46412;BME280;32113;42.012;24.870;2023-05-08T03:05:19;99282.06;;;15.68;54.92
46412;BME280;32113;42.012;24.870;2023-05-08T03:07:49;99293.19;;;15.70;55.04
46412;BME280;32113;42.012;24.870;2023-05-08T03:10:15;99288.13;;;15.67;55.42
46412;BME280;32113;42.012;24.870;2023-05-08T03:12:44;99285.66;;;15.62;55.69
46412;BME280;32113;42.012;24.870;2023-05-08T03:15:22;99291.47;;;15.71;55.77
46412;BME280;32113;42.012;24.870;2023-05-08T03:17:48;99292.25;;;15.73;55.33
46412;BME280;32113;42.012;24.870;2023-05-08T03:20:16;99294.97;;;15.70;55.46
46412;BME280;32113;42.012;24.870;2023-05-08T03:22:43;99291.72;;;15.61;55.81
46412;BME280;32113;42.012;24.870;2023-05-08T03:25:10;99294.47;;;15.57;56.06
46412;BME280;32113;42.012;24.870;2023-05-08T03:27:38;99302.22;;;15.57;56.22
46412;BME280;32113;42.012;24.870;2023-05-08T03:30:04;99295.31;;;15.56;56.13
46412;BME280;32113;42.012;24.870;2023-05-08T03:32:30;99296.09;;;15.59;56.24
46412;BME280;32113;42.012;24.870;2023-05-08T03:34:57;99292.78;;;15.54;56.57
46412;BME280;32113;42.012;24.870;2023-05-08T03:37:23;99296.22;;;15.55;56.61
46412;BME280;32113;42.012;24.870;2023-05-08T03:39:49;99301.28;;;15.59;56.49
46412;BME280;32113;42.012;24.870;2023-05-08T03:42:15;99309.84;;;15.61;56.55
46412;BME280;32113;42.012;24.870;2023-05-08T03:44:54;99310.59;;;15.65;56.56
46412;BME280;32113;42.012;24.870;2023-05-08T03:47:20;99313.28;;;15.62;56.71
46412;BME280;32113;42.012;24.870;2023-05-08T03:49:45;99315.75;;;15.65;56.86
46412;BME280;32113;42.012;24.870;2023-05-08T03:52:11;99315.66;;;15.70;56.88
46412;BME280;32113;42.012;24.870;2023-05-08T03:54:37;99306.28;;;15.66;56.93
46412;BME280;32113;42.012;24.870;2023-05-08T03:57:02;99311.53;;;15.62;57.12
46412;BME280;32113;42.012;24.870;2023-05-08T04:02:03;99302.81;;;15.65;57.10
46412;BME280;32113;42.012;24.870;2023-05-08T04:04:37;99306.84;;;15.75;57.26
46412;BME280;32113;42.012;24.870;2023-05-08T04:07:14;99306.78;;;15.79;56.68
46412;BME280;32113;42.012;24.870;2023-05-08T04:09:47;99311.94;;;15.79;56.92
46412;BME280;32113;42.012;24.870;2023-05-08T04:14:42;99312.41;;;15.95;56.16
46412;BME280;32113;42.012;24.870;2023-05-08T04:17:08;99310.56;;;15.98;56.31
46412;BME280;32113;42.012;24.870;2023-05-08T04:19:37;99312.84;;;16.09;55.90
46412;BME280;32113;42.012;24.870;2023-05-08T04:22:05;99311.75;;;16.18;55.54
46412;BME280;32113;42.012;24.870;2023-05-08T04:24:30;99310.75;;;16.22;54.16
46412;BME280;32113;42.012;24.870;2023-05-08T04:26:57;99316.66;;;16.27;53.48
46412;BME280;32113;42.012;24.870;2023-05-08T04:29:24;99311.41;;;16.29;53.37
46412;BME280;32113;42.012;24.870;2023-05-08T04:31:49;99314.72;;;16.34;52.32
46412;BME280;32113;42.012;24.870;2023-05-08T04:34:15;99312.28;;;16.29;52.38
46412;BME280;32113;42.012;24.870;2023-05-08T04:36:41;99318.78;;;16.43;52.01
46412;BME280;32113;42.012;24.870;2023-05-08T04:39:06;99313.50;;;16.46;52.44
46412;BME280;32113;42.012;24.870;2023-05-08T04:41:31;99314.16;;;16.53;52.20
46412;BME280;32113;42.012;24.870;2023-05-08T04:43:57;99319.16;;;16.59;52.06
46412;BME280;32113;42.012;24.870;2023-05-08T04:46:22;99313.03;;;16.62;51.88
46412;BME280;32113;42.012;24.870;2023-05-08T04:48:48;99318.97;;;16.65;52.09
46412;BME280;32113;42.012;24.870;2023-05-08T04:51:14;99314.44;;;16.72;51.21
46412;BME280;32113;42.012;24.870;2023-05-08T04:53:39;99314.16;;;16.81;51.08
46412;BME280;32113;42.012;24.870;2023-05-08T04:56:04;99318.00;;;16.97;50.88
46412;BME280;32113;42.012;24.870;2023-05-08T04:58:29;99316.63;;;17.13;49.83
46412;BME280;32113;42.012;24.870;2023-05-08T05:00:55;99323.19;;;17.24;49.96
46412;BME280;32113;42.012;24.870;2023-05-08T05:03:20;99313.25;;;17.37;49.82
46412;BME280;32113;42.012;24.870;2023-05-08T05:05:45;99313.72;;;17.48;49.68
46412;BME280;32113;42.012;24.870;2023-05-08T05:08:11;99313.34;;;17.59;48.76
46412;BME280;32113;42.012;24.870;2023-05-08T05:10:39;99308.13;;;17.60;48.84
46412;BME280;32113;42.012;24.870;2023-05-08T05:13:04;99313.75;;;17.72;48.78
46412;BME280;32113;42.012;24.870;2023-05-08T05:15:29;99308.19;;;17.83;47.87
46412;BME280;32113;42.012;24.870;2023-05-08T05:17:55;99302.72;;;17.91;47.68
46412;BME280;32113;42.012;24.870;2023-05-08T05:20:20;99304.97;;;18.00;47.18
46412;BME280;32113;42.012;24.870;2023-05-08T05:22:45;99311.66;;;18.07;46.69
46412;BME280;32113;42.012;24.870;2023-05-08T05:25:11;99307.91;;;18.15;45.70
46412;BME280;32113;42.012;24.870;2023-05-08T05:27:36;99302.69;;;18.16;45.43
46412;BME280;32113;42.012;24.870;2023-05-08T05:30:02;99308.88;;;18.12;45.07
46412;BME280;32113;42.012;24.870;2023-05-08T05:32:27;99307.47;;;18.03;45.54
46412;BME280;32113;42.012;24.870;2023-05-08T05:34:53;99303.75;;;18.10;45.41
46412;BME280;32113;42.012;24.870;2023-05-08T05:37:19;99288.31;;;18.06;44.89
46412;BME280;32113;42.012;24.870;2023-05-08T05:39:44;99303.75;;;18.10;44.99
46412;BME280;32113;42.012;24.870;2023-05-08T05:42:09;99295.84;;;18.14;45.12
46412;BME280;32113;42.012;24.870;2023-05-08T05:44:35;99290.56;;;18.17;45.06
46412;BME280;32113;42.012;24.870;2023-05-08T05:47:00;99284.09;;;18.03;44.93
46412;BME280;32113;42.012;24.870;2023-05-08T05:49:26;99288.66;;;17.96;45.28
46412;BME280;32113;42.012;24.870;2023-05-08T05:51:51;99287.50;;;18.04;44.10
46412;BME280;32113;42.012;24.870;2023-05-08T05:54:16;99283.22;;;18.03;43.51
46412;BME280;32113;42.012;24.870;2023-05-08T05:56:42;99282.31;;;18.04;44.53
46412;BME280;32113;42.012;24.870;2023-05-08T05:59:07;99277.06;;;18.05;44.34
46412;BME280;32113;42.012;24.870;2023-05-08T06:01:32;99277.13;;;18.04;44.15
46412;BME280;32113;42.012;24.870;2023-05-08T06:03:58;99279.56;;;18.10;44.59
46412;BME280;32113;42.012;24.870;2023-05-08T06:06:23;99275.41;;;18.04;45.42
46412;BME280;32113;42.012;24.870;2023-05-08T06:08:48;99276.25;;;18.05;45.38
46412;BME280;32113;42.012;24.870;2023-05-08T06:11:14;99277.78;;;18.10;44.14
46412;BME280;32113;42.012;24.870;2023-05-08T06:13:39;99281.19;;;18.12;43.62
46412;BME280;32113;42.012;24.870;2023-05-08T06:16:05;99286.38;;;18.12;42.86
46412;BME280;32113;42.012;24.870;2023-05-08T06:18:31;99280.16;;;18.17;43.27
46412;BME280;32113;42.012;24.870;2023-05-08T06:20:57;99273.09;;;18.20;43.54
46412;BME280;32113;42.012;24.870;2023-05-08T06:23:22;99284.41;;;18.19;43.45
46412;BME280;32113;42.012;24.870;2023-05-08T06:25:47;99276.56;;;18.21;43.67
46412;BME280;32113;42.012;24.870;2023-05-08T06:28:13;99270.56;;;18.19;43.34
46412;BME280;32113;42.012;24.870;2023-05-08T06:30:39;99270.75;;;18.14;43.77
46412;BME280;32113;42.012;24.870;2023-05-08T06:33:04;99274.22;;;18.13;43.71
46412;BME280;32113;42.012;24.870;2023-05-08T06:35:29;99271.22;;;18.24;42.98
46412;BME280;32113;42.012;24.870;2023-05-08T06:37:55;99279.72;;;18.28;43.63
46412;BME280;32113;42.012;24.870;2023-05-08T06:40:20;99276.00;;;18.35;43.51
46412;BME280;32113;42.012;24.870;2023-05-08T06:42:45;99278.44;;;18.40;43.11
46412;BME280;32113;42.012;24.870;2023-05-08T06:45:11;99268.81;;;18.42;42.86
46412;BME280;32113;42.012;24.870;2023-05-08T06:47:36;99271.22;;;18.46;43.61
46412;BME280;32113;42.012;24.870;2023-05-08T06:50:01;99262.47;;;18.49;42.63
46412;BME280;32113;42.012;24.870;2023-05-08T06:52:27;99266.03;;;18.46;43.03
46412;BME280;32113;42.012;24.870;2023-05-08T06:54:52;99268.44;;;18.51;42.67
46412;BME280;32113;42.012;24.870;2023-05-08T06:57:17;99269.38;;;18.50;42.59
46412;BME280;32113;42.012;24.870;2023-05-08T06:59:43;99258.78;;;18.55;43.50
46412;BME280;32113;42.012;24.870;2023-05-08T07:02:08;99262.94;;;18.59;43.81
46412;BME280;32113;42.012;24.870;2023-05-08T07:04:34;99246.91;;;18.70;42.91
46412;BME280;32113;42.012;24.870;2023-05-08T07:07:00;99247.53;;;18.76;43.05
46412;BME280;32113;42.012;24.870;2023-05-08T07:09:25;99249.03;;;18.82;42.67
46412;BME280;32113;42.012;24.870;2023-05-08T07:11:50;99250.28;;;18.94;42.68
46412;BME280;32113;42.012;24.870;2023-05-08T07:14:16;99236.69;;;19.08;43.17
46412;BME280;32113;42.012;24.870;2023-05-08T07:16:43;99243.19;;;19.19;42.64
46412;BME280;32113;42.012;24.870;2023-05-08T07:19:08;99231.16;;;19.37;43.33
46412;BME280;32113;42.012;24.870;2023-05-08T07:21:33;99242.84;;;19.47;41.41
46412;BME280;32113;42.012;24.870;2023-05-08T07:23:59;99240.66;;;19.57;41.02
46412;BME280;32113;42.012;24.870;2023-05-08T07:26:24;99237.53;;;19.69;40.98
46412;BME280;32113;42.012;24.870;2023-05-08T07:28:49;99235.91;;;19.86;40.91
46412;BME280;32113;42.012;24.870;2023-05-08T07:31:15;99236.28;;;19.98;40.80
46412;BME280;32113;42.012;24.870;2023-05-08T07:33:40;99234.78;;;20.11;40.85
46412;BME280;32113;42.012;24.870;2023-05-08T07:36:06;99236.03;;;20.21;40.34
46412;BME280;32113;42.012;24.870;2023-05-08T07:38:31;99232.19;;;20.30;40.95
46412;BME280;32113;42.012;24.870;2023-05-08T07:40:56;99228.75;;;20.47;41.01
46412;BME280;32113;42.012;24.870;2023-05-08T07:43:23;99228.97;;;20.60;40.80
46412;BME280;32113;42.012;24.870;2023-05-08T07:45:49;99234.22;;;20.78;39.48
46412;BME280;32113;42.012;24.870;2023-05-08T07:48:14;99225.41;;;20.81;38.97
46412;BME280;32113;42.012;24.870;2023-05-08T07:50:39;99231.78;;;20.93;39.00
46412;BME280;32113;42.012;24.870;2023-05-08T07:53:04;99234.00;;;21.00;39.31
46412;BME280;32113;42.012;24.870;2023-05-08T07:55:30;99233.13;;;21.18;39.31
46412;BME280;32113;42.012;24.870;2023-05-08T07:57:55;99228.97;;;21.31;38.26
46412;BME280;32113;42.012;24.870;2023-05-08T08:00:21;99222.75;;;21.34;38.89
46412;BME280;32113;42.012;24.870;2023-05-08T08:02:46;99224.53;;;21.49;38.53
46412;BME280;32113;42.012;24.870;2023-05-08T08:05:11;99211.19;;;21.56;37.84
46412;BME280;32113;42.012;24.870;2023-05-08T08:07:36;99219.25;;;21.67;38.06
46412;BME280;32113;42.012;24.870;2023-05-08T08:10:02;99215.91;;;21.65;37.80
46412;BME280;32113;42.012;24.870;2023-05-08T08:12:28;99215.44;;;21.74;38.22
46412;BME280;32113;42.012;24.870;2023-05-08T08:14:54;99218.38;;;21.84;38.16
46412;BME280;32113;42.012;24.870;2023-05-08T08:17:20;99210.44;;;22.02;38.33
46412;BME280;32113;42.012;24.870;2023-05-08T08:19:45;99210.59;;;22.15;37.70
46412;BME280;32113;42.012;24.870;2023-05-08T08:22:10;99206.81;;;22.21;37.66
46412;BME280;32113;42.012;24.870;2023-05-08T08:24:36;99201.81;;;22.32;37.49
46412;BME280;32113;42.012;24.870;2023-05-08T08:27:01;99204.38;;;22.48;38.00
46412;BME280;32113;42.012;24.870;2023-05-08T08:29:26;99195.78;;;22.62;37.29
46412;BME280;32113;42.012;24.870;2023-05-08T08:31:52;99193.28;;;22.75;36.81
46412;BME280;32113;42.012;24.870;2023-05-08T08:34:17;99196.56;;;22.79;37.41
46412;BME280;32113;42.012;24.870;2023-05-08T08:36:42;99183.31;;;22.82;36.92
46412;BME280;32113;42.012;24.870;2023-05-08T08:39:07;99182.59;;;22.94;36.84
46412;BME280;32113;42.012;24.870;2023-05-08T08:41:33;99180.25;;;23.04;36.28
46412;BME280;32113;42.012;24.870;2023-05-08T08:43:58;99180.81;;;23.09;37.12
46412;BME280;32113;42.012;24.870;2023-05-08T08:46:24;99180.31;;;23.17;37.64
46412;BME280;32113;42.012;24.870;2023-05-08T08:48:50;99174.06;;;23.20;36.21
46412;BME280;32113;42.012;24.870;2023-05-08T08:51:30;99176.25;;;23.28;36.67
46412;BME280;32113;42.012;24.870;2023-05-08T08:54:02;99174.53;;;23.27;37.16
46412;BME280;32113;42.012;24.870;2023-05-08T08:56:28;99168.03;;;23.34;37.17
46412;BME280;32113;42.012;24.870;2023-05-08T08:58:57;99165.88;;;23.41;36.33
46412;BME280;32113;42.012;24.870;2023-05-08T09:01:24;99176.16;;;23.44;37.20
46412;BME280;32113;42.012;24.870;2023-05-08T09:03:50;99166.97;;;23.51;37.04
46412;BME280;32113;42.012;24.870;2023-05-08T09:06:16;99163.22;;;23.55;36.83
46412;BME280;32113;42.012;24.870;2023-05-08T09:08:42;99162.47;;;23.68;37.52
46412;BME280;32113;42.012;24.870;2023-05-08T09:11:07;99160.34;;;23.87;37.13
46412;BME280;32113;42.012;24.870;2023-05-08T09:13:33;99159.53;;;24.14;36.78
46412;BME280;32113;42.012;24.870;2023-05-08T09:15:58;99161.34;;;24.40;35.80
46412;BME280;32113;42.012;24.870;2023-05-08T09:18:23;99155.00;;;24.57;36.21
46412;BME280;32113;42.012;24.870;2023-05-08T09:20:49;99144.94;;;24.77;35.95
46412;BME280;32113;42.012;24.870;2023-05-08T09:23:15;99146.22;;;24.97;35.37
46412;BME280;32113;42.012;24.870;2023-05-08T09:25:41;99144.03;;;25.04;35.18
46412;BME280;32113;42.012;24.870;2023-05-08T09:28:20;99138.53;;;25.07;35.99
46412;BME280;32113;42.012;24.870;2023-05-08T09:30:52;99126.44;;;25.17;35.46
46412;BME280;32113;42.012;24.870;2023-05-08T09:33:17;99128.88;;;25.21;34.63
46412;BME280;32113;42.012;24.870;2023-05-08T09:35:43;99126.94;;;25.36;33.92
46412;BME280;32113;42.012;24.870;2023-05-08T09:38:08;99122.59;;;25.48;33.96
46412;BME280;32113;42.012;24.870;2023-05-08T09:40:33;99116.44;;;25.36;33.82
46412;BME280;32113;42.012;24.870;2023-05-08T09:43:10;99118.84;;;25.39;34.58
46412;BME280;32113;42.012;24.870;2023-05-08T09:45:36;99113.06;;;25.47;34.03
46412;BME280;32113;42.012;24.870;2023-05-08T09:48:04;99106.25;;;25.44;33.71
46412;BME280;32113;42.012;24.870;2023-05-08T09:50:29;99100.75;;;25.47;33.67
46412;BME280;32113;42.012;24.870;2023-05-08T09:52:55;99101.69;;;25.59;33.79
46412;BME280;32113;42.012;24.870;2023-05-08T09:55:20;99100.88;;;24.82;33.98
46412;BME280;32113;42.012;24.870;2023-05-08T10:00:17;99101.94;;;24.92;35.76
46412;BME280;32113;42.012;24.870;2023-05-08T10:03:01;99090.59;;;25.05;35.09
46412;BME280;32113;42.012;24.870;2023-05-08T10:05:33;99084.75;;;25.26;35.75
46412;BME280;32113;42.012;24.870;2023-05-08T10:10:43;99070.59;;;25.53;35.10
46412;BME280;32113;42.012;24.870;2023-05-08T10:13:08;99069.59;;;25.67;34.23
46412;BME280;32113;42.012;24.870;2023-05-08T10:15:33;99064.50;;;25.77;35.08
46412;BME280;32113;42.012;24.870;2023-05-08T10:20:28;99061.22;;;25.97;33.24
46412;BME280;32113;42.012;24.870;2023-05-08T10:22:54;99059.81;;;26.05;34.59
46412;BME280;32113;42.012;24.870;2023-05-08T10:25:20;99061.66;;;26.16;34.59
46412;BME280;32113;42.012;24.870;2023-05-08T10:27:47;99057.09;;;26.18;33.51
46412;BME280;32113;42.012;24.870;2023-05-08T10:30:14;99061.88;;;26.13;33.99
46412;BME280;32113;42.012;24.870;2023-05-08T10:32:44;99055.31;;;26.18;33.58
46412;BME280;32113;42.012;24.870;2023-05-08T10:35:14;99046.97;;;26.24;33.53
46412;BME280;32113;42.012;24.870;2023-05-08T10:37:40;99046.38;;;26.21;33.88
46412;BME280;32113;42.012;24.870;2023-05-08T10:40:06;99047.84;;;26.25;33.95
46412;BME280;32113;42.012;24.870;2023-05-08T10:42:32;99041.63;;;26.37;34.14
46412;BME280;32113;42.012;24.870;2023-05-08T10:44:58;99045.25;;;26.48;34.40
46412;BME280;32113;42.012;24.870;2023-05-08T10:52:38;99033.16;;;26.45;33.16
46412;BME280;32113;42.012;24.870;2023-05-08T10:57:32;99036.16;;;26.52;33.50
46412;BME280;32113;42.012;24.870;2023-05-08T10:59:57;99025.28;;;26.57;33.69
46412;BME280;32113;42.012;24.870;2023-05-08T11:02:26;99022.88;;;26.65;33.81
46412;BME280;32113;42.012;24.870;2023-05-08T11:05:15;99016.28;;;26.71;34.05
46412;BME280;32113;42.012;24.870;2023-05-08T11:10:35;99021.91;;;26.89;34.78
46412;BME280;32113;42.012;24.870;2023-05-08T11:13:04;99014.97;;;26.88;35.04
46412;BME280;32113;42.012;24.870;2023-05-08T11:15:38;99008.88;;;26.87;34.82
46412;BME280;32113;42.012;24.870;2023-05-08T11:18:09;99006.00;;;26.79;34.54
46412;BME280;32113;42.012;24.870;2023-05-08T11:20:43;99003.25;;;26.81;34.72
46412;BME280;32113;42.012;24.870;2023-05-08T11:23:21;99003.38;;;26.79;34.77
46412;BME280;32113;42.012;24.870;2023-05-08T11:25:47;99000.63;;;26.81;35.18
46412;BME280;32113;42.012;24.870;2023-05-08T11:28:12;98994.19;;;26.73;35.92
46412;BME280;32113;42.012;24.870;2023-05-08T11:30:40;98994.03;;;26.75;34.15
46412;BME280;32113;42.012;24.870;2023-05-08T11:35:41;98993.59;;;26.58;35.17
46412;BME280;32113;42.012;24.870;2023-05-08T11:46:03;98984.84;;;26.58;34.91
46412;BME280;32113;42.012;24.870;2023-05-08T11:48:29;98990.81;;;26.48;35.02
46412;BME280;32113;42.012;24.870;2023-05-08T11:50:54;98985.31;;;26.40;34.91
46412;BME280;32113;42.012;24.870;2023-05-08T11:53:20;98978.88;;;26.33;35.79
46412;BME280;32113;42.012;24.870;2023-05-08T11:55:48;98980.31;;;26.37;36.27
46412;BME280;32113;42.012;24.870;2023-05-08T11:58:16;98982.34;;;26.45;35.28
46412;BME280;32113;42.012;24.870;2023-05-08T12:00:45;98973.25;;;26.49;35.91
46412;BME280;32113;42.012;24.870;2023-05-08T12:03:11;98979.00;;;26.54;36.02
46412;BME280;32113;42.012;24.870;2023-05-08T12:05:37;98974.31;;;26.58;34.60
46412;BME280;32113;42.012;24.870;2023-05-08T12:08:02;98974.59;;;26.55;35.54
46412;BME280;32113;42.012;24.870;2023-05-08T12:10:30;98970.88;;;26.57;34.76
46412;BME280;32113;42.012;24.870;2023-05-08T12:12:55;98966.53;;;26.56;34.24
46412;BME280;32113;42.012;24.870;2023-05-08T12:15:21;98956.38;;;26.63;34.14
46412;BME280;32113;42.012;24.870;2023-05-08T12:17:46;98958.91;;;26.76;35.29
46412;BME280;32113;42.012;24.870;2023-05-08T12:20:12;98953.13;;;26.71;33.73
46412;BME280;32113;42.012;24.870;2023-05-08T12:22:38;98949.69;;;26.70;33.97
46412;BME280;32113;42.012;24.870;2023-05-08T12:25:05;98949.06;;;26.78;34.14
46412;BME280;32113;42.012;24.870;2023-05-08T12:27:31;98942.03;;;26.79;33.82
46412;BME280;32113;42.012;24.870;2023-05-08T12:29:56;98945.81;;;26.86;33.93
46412;BME280;32113;42.012;24.870;2023-05-08T12:32:21;98936.41;;;26.95;33.25
46412;BME280;32113;42.012;24.870;2023-05-08T12:34:47;98941.50;;;26.96;33.27
46412;BME280;32113;42.012;24.870;2023-05-08T12:37:21;98940.06;;;27.04;33.43
46412;BME280;32113;42.012;24.870;2023-05-08T12:39:47;98936.84;;;27.00;32.98
46412;BME280;32113;42.012;24.870;2023-05-08T12:42:12;98937.56;;;27.02;33.30
46412;BME280;32113;42.012;24.870;2023-05-08T12:44:37;98941.97;;;26.90;33.95
46412;BME280;32113;42.012;24.870;2023-05-08T12:47:03;98938.31;;;26.81;33.13
46412;BME280;32113;42.012;24.870;2023-05-08T12:49:29;98935.78;;;26.80;33.60
46412;BME280;32113;42.012;24.870;2023-05-08T12:54:36;98934.88;;;26.46;33.67
46412;BME280;32113;42.012;24.870;2023-05-08T12:57:11;98944.44;;;26.47;33.99
46412;BME280;32113;42.012;24.870;2023-05-08T12:59:37;98937.41;;;26.36;33.86
46412;BME280;32113;42.012;24.870;2023-05-08T13:02:02;98930.34;;;26.26;33.46
46412;BME280;32113;42.012;24.870;2023-05-08T13:04:28;98931.38;;;26.23;34.15
46412;BME280;32113;42.012;24.870;2023-05-08T13:06:56;98933.53;;;26.18;34.71
46412;BME280;32113;42.012;24.870;2023-05-08T13:09:21;98929.84;;;26.20;34.17
46412;BME280;32113;42.012;24.870;2023-05-08T13:11:47;98927.72;;;26.26;34.00
46412;BME280;32113;42.012;24.870;2023-05-08T13:14:12;98924.16;;;26.27;34.33
46412;BME280;32113;42.012;24.870;2023-05-08T13:16:44;98926.41;;;26.31;34.53
46412;BME280;32113;42.012;24.870;2023-05-08T13:19:09;98927.97;;;26.34;33.71
46412;BME280;32113;42.012;24.870;2023-05-08T13:21:35;98924.50;;;26.33;33.14
46412;BME280;32113;42.012;24.870;2023-05-08T13:24:00;98930.13;;;26.29;33.28
46412;BME280;32113;42.012;24.870;2023-05-08T13:26:25;98926.28;;;26.21;33.27
46412;BME280;32113;42.012;24.870;2023-05-08T13:28:51;98920.41;;;26.18;33.80
46412;BME280;32113;42.012;24.870;2023-05-08T13:31:16;98921.94;;;26.20;33.93
46412;BME280;32113;42.012;24.870;2023-05-08T13:33:41;98920.16;;;26.21;33.90
46412;BME280;32113;42.012;24.870;2023-05-08T13:36:07;98917.78;;;26.18;33.82
46412;BME280;32113;42.012;24.870;2023-05-08T13:38:32;98912.16;;;26.22;33.75
46412;BME280;32113;42.012;24.870;2023-05-08T13:40:58;98914.69;;;26.24;33.49